Time;durP1;ratioP1;P1;durP2;ratioP2;P2;SDS_P1;SDS_P2;PMS_P1;PMS_P2;Temp;Humidity;BMP_temperature;BMP_pressure;BME280_temperature;BME280_humidity;BME280_pressure;Samples;Min_cycle;Max_cycle;Signal;HPM_P1;HPM_P2
2024/03/07 00:01:49;;;;;;;;;;;;;;;18.30;45.07;100552.28;10284799;28;937;-75
2024/03/07 00:06:45;;;;;;;;;;;;;;;18.29;45.11;100553.19;10284167;28;1353;-75
2024/03/07 00:11:41;;;;;;;;;;;;;;;18.29;44.81;100559.34;10284177;28;1971;-75
2024/03/07 00:16:37;;;;;;;;;;;;;;;18.28;44.92;100554.94;10284315;28;767;-75
2024/03/07 00:21:33;;;;;;;;;;;;;;;18.27;44.89;100555.88;10288411;28;927;-75
2024/03/07 00:26:30;;;;;;;;;;;;;;;18.27;44.98;100558.50;10292226;28;984;-75
2024/03/07 00:31:26;;;;;;;;;;;;;;;18.26;44.93;100558.53;10276968;28;1948;-75
2024/03/07 00:36:22;;;;;;;;;;;;;;;18.25;45.03;100555.06;10251827;28;845;-75
2024/03/07 00:41:18;;;;;;;;;;;;;;;18.25;45.04;100552.41;10251268;28;777;-75
2024/03/07 00:46:14;;;;;;;;;;;;;;;18.26;45.04;100558.53;10252184;28;949;-75
2024/03/07 00:51:10;;;;;;;;;;;;;;;18.24;45.05;100553.34;10250700;28;1914;-75
2024/03/07 00:56:05;;;;;;;;;;;;;;;18.23;44.73;100548.94;10251203;28;830;-75
2024/03/07 01:01:02;;;;;;;;;;;;;;;18.24;44.85;100552.47;10250343;28;1000;-75
2024/03/07 01:05:59;;;;;;;;;;;;;;;18.23;45.08;100551.59;10250559;28;779;-76
2024/03/07 01:10:54;;;;;;;;;;;;;;;18.24;45.00;100555.13;10250492;28;1976;-75
2024/03/07 01:15:50;;;;;;;;;;;;;;;18.22;44.99;100552.53;10249836;28;771;-76
2024/03/07 01:20:46;;;;;;;;;;;;;;;18.20;44.89;100541.13;10250297;28;830;-75
2024/03/07 01:25:42;;;;;;;;;;;;;;;18.21;45.10;100542.00;10250122;28;874;-75
2024/03/07 01:30:38;;;;;;;;;;;;;;;18.20;44.97;100545.56;10248978;28;1977;-75
2024/03/07 01:35:34;;;;;;;;;;;;;;;18.18;44.97;100546.50;10248116;28;867;-75
2024/03/07 01:40:30;;;;;;;;;;;;;;;18.18;44.87;100542.97;10248843;28;818;-75
2024/03/07 01:45:25;;;;;;;;;;;;;;;18.17;44.80;100535.97;10250014;28;870;-75
2024/03/07 01:50:21;;;;;;;;;;;;;;;18.16;44.85;100529.84;10248551;28;1902;-74
2024/03/07 01:55:17;;;;;;;;;;;;;;;18.16;44.81;100535.13;10249037;28;841;-75
2024/03/07 02:00:13;;;;;;;;;;;;;;;18.15;44.85;100528.09;10248196;28;894;-75
2024/03/07 02:05:10;;;;;;;;;;;;;;;18.16;44.94;100531.63;10248072;28;834;-75
2024/03/07 02:10:06;;;;;;;;;;;;;;;18.14;44.70;100521.09;10247409;28;1910;-75
2024/03/07 02:15:02;;;;;;;;;;;;;;;18.15;44.74;100525.44;10247640;28;863;-76
2024/03/07 02:19:58;;;;;;;;;;;;;;;18.13;44.92;100511.47;10247402;28;915;-75
2024/03/07 02:24:54;;;;;;;;;;;;;;;18.14;44.75;100513.19;10247935;28;834;-75
2024/03/07 02:29:51;;;;;;;;;;;;;;;18.13;44.80;100506.19;10246899;28;1898;-75
2024/03/07 02:34:47;;;;;;;;;;;;;;;18.13;44.88;100508.84;10246779;28;814;-75
2024/03/07 02:39:42;;;;;;;;;;;;;;;18.11;44.86;100505.38;10246596;28;911;-75
2024/03/07 02:44:38;;;;;;;;;;;;;;;18.13;44.73;100510.59;10246768;28;837;-75
2024/03/07 02:49:34;;;;;;;;;;;;;;;18.12;44.93;100507.09;10246205;28;1902;-75
2024/03/07 02:54:32;;;;;;;;;;;;;;;18.12;44.98;100508.88;10246095;28;885;-75
2024/03/07 02:59:28;;;;;;;;;;;;;;;18.10;44.77;100508.94;10245808;28;977;-75
2024/03/07 03:04:24;;;;;;;;;;;;;;;18.09;44.86;100507.19;10245711;28;980;-75
2024/03/07 03:09:21;;;;;;;;;;;;;;;18.10;44.75;100502.78;10245770;28;1262;-75
2024/03/07 03:14:17;;;;;;;;;;;;;;;18.10;44.93;100502.78;10245255;28;1914;-75
2024/03/07 03:19:14;;;;;;;;;;;;;;;18.08;44.76;100487.00;10245149;28;1163;-75
2024/03/07 03:24:10;;;;;;;;;;;;;;;18.07;44.75;100482.63;10244963;28;1636;-75
2024/03/07 03:29:07;;;;;;;;;;;;;;;18.07;44.79;100474.72;10244362;28;1016;-75
2024/03/07 03:34:03;;;;;;;;;;;;;;;18.07;44.83;100474.72;10244641;28;1922;-75
2024/03/07 03:38:59;;;;;;;;;;;;;;;18.07;44.69;100482.63;10245553;28;825;-75
2024/03/07 03:43:55;;;;;;;;;;;;;;;18.06;44.67;100480.91;10244503;28;818;-76
2024/03/07 03:48:50;;;;;;;;;;;;;;;18.06;44.66;100473.00;10244620;28;811;-75
2024/03/07 03:53:47;;;;;;;;;;;;;;;18.05;44.84;100470.41;10243986;28;2025;-75
2024/03/07 03:58:43;;;;;;;;;;;;;;;18.05;44.60;100462.47;10243531;28;974;-75
2024/03/07 04:03:39;;;;;;;;;;;;;;;18.03;44.61;100465.19;10243977;28;823;-75
2024/03/07 04:08:36;;;;;;;;;;;;;;;18.03;44.58;100467.84;10243472;28;1133;-76
2024/03/07 04:13:32;;;;;;;;;;;;;;;18.03;44.54;100473.09;10244301;28;1923;-75
2024/03/07 04:18:28;;;;;;;;;;;;;;;18.02;44.75;100463.44;10243729;28;778;-76
2024/03/07 04:23:24;;;;;;;;;;;;;;;18.01;44.77;100464.38;10244231;28;791;-75
2024/03/07 04:28:20;;;;;;;;;;;;;;;18.02;44.75;100473.16;10243541;28;895;-75
2024/03/07 04:33:16;;;;;;;;;;;;;;;18.00;44.69;100462.66;10244511;28;1949;-75
2024/03/07 04:38:14;;;;;;;;;;;;;;;18.02;44.66;100465.22;10243390;28;839;-75
2024/03/07 04:43:11;;;;;;;;;;;;;;;18.00;44.60;100461.78;10242569;28;932;-76
2024/03/07 04:48:08;;;;;;;;;;;;;;;18.01;44.65;100477.56;10243435;28;862;-75
2024/03/07 04:53:04;;;;;;;;;;;;;;;18.02;44.58;100471.38;10242920;28;1894;-75
2024/03/07 04:58:00;;;;;;;;;;;;;;;18.02;44.61;100462.59;10243645;28;806;-76
2024/03/07 05:02:56;;;;;;;;;;;;;;;18.05;44.57;100476.56;10242986;28;783;-75
2024/03/07 05:07:52;;;;;;;;;;;;;;;18.04;44.43;100477.47;10247360;28;1274;-75
2024/03/07 05:12:48;;;;;;;;;;;;;;;18.04;44.63;100480.09;10249964;28;1918;-75
2024/03/07 05:17:44;;;;;;;;;;;;;;;18.05;44.59;100471.28;10249808;28;821;-75
2024/03/07 05:22:44;;;;;;;;;;;;;;;18.04;44.54;100464.28;10250480;28;838;-76
2024/03/07 05:27:40;;;;;;;;;;;;;;;18.06;44.74;100469.50;10250037;28;962;-75
2024/03/07 05:32:36;;;;;;;;;;;;;;;18.06;44.67;100469.50;10249223;28;1903;-75
2024/03/07 05:37:32;;;;;;;;;;;;;;;18.05;44.41;100468.66;10249179;28;889;-75
2024/03/07 05:42:29;;;;;;;;;;;;;;;18.06;44.74;100465.09;10248861;28;877;-76
2024/03/07 05:47:25;;;;;;;;;;;;;;;18.07;44.60;100463.31;10248322;28;845;-77
2024/03/07 05:52:21;;;;;;;;;;;;;;;18.07;44.51;100465.94;10248507;28;1934;-77
2024/03/07 05:57:17;;;;;;;;;;;;;;;18.07;44.24;100472.06;10248325;28;898;-77
2024/03/07 06:02:15;;;;;;;;;;;;;;;18.08;44.48;100476.47;10248168;28;929;-77
2024/03/07 06:07:11;;;;;;;;;;;;;;;18.07;44.62;100472.06;10248243;28;1129;-76
2024/03/07 06:12:08;;;;;;;;;;;;;;;18.08;44.58;100488.78;10247671;28;1918;-76
2024/03/07 06:17:04;;;;;;;;;;;;;;;18.08;44.61;100488.78;10247113;28;931;-75
2024/03/07 06:22:00;;;;;;;;;;;;;;;18.09;44.55;100487.88;10247659;28;841;-72
2024/03/07 06:26:59;;;;;;;;;;;;;;;18.09;44.44;100494.00;10247196;28;782;-70
2024/03/07 06:31:55;;;;;;;;;;;;;;;18.09;44.33;100491.38;10247130;28;1957;-73
2024/03/07 06:36:51;;;;;;;;;;;;;;;18.09;44.51;100495.78;10246862;28;908;-68
2024/03/07 06:41:47;;;;;;;;;;;;;;;18.09;44.60;100495.78;10246698;28;1570;-69
2024/03/07 06:46:45;;;;;;;;;;;;;;;18.08;44.38;100496.72;10245890;28;1169;-71
2024/03/07 06:51:41;;;;;;;;;;;;;;;18.07;44.51;100495.81;10246765;28;1961;-71
2024/03/07 06:56:39;;;;;;;;;;;;;;;18.08;44.44;100497.56;10247373;28;1016;-71
2024/03/07 07:01:35;;;;;;;;;;;;;;;18.08;44.25;100497.56;10245809;28;792;-71
2024/03/07 07:06:31;;;;;;;;;;;;;;;18.07;44.38;100492.31;10246032;28;1513;-71
2024/03/07 07:11:27;;;;;;;;;;;;;;;18.05;44.69;100484.47;10245878;28;1910;-73
2024/03/07 07:16:23;;;;;;;;;;;;;;;18.02;44.57;100486.34;10245237;28;993;-72
2024/03/07 07:21:19;;;;;;;;;;;;;;;17.98;44.30;100487.38;10245075;28;965;-71
2024/03/07 07:26:15;;;;;;;;;;;;;;;17.91;44.17;100487.53;10245793;28;810;-72
2024/03/07 07:31:11;;;;;;;;;;;;;;;17.87;43.51;100479.78;10244158;28;1961;-74
2024/03/07 07:36:07;;;;;;;;;;;;;;;17.83;43.29;100472.88;10244662;28;973;-70
2024/03/07 07:41:03;;;;;;;;;;;;;;;17.80;43.31;100472.97;10243287;28;1028;-71
2024/03/07 07:45:59;;;;;;;;;;;;;;;17.77;43.10;100459.88;10244434;28;975;-72
2024/03/07 07:50:55;;;;;;;;;;;;;;;17.77;43.17;100473.06;10245389;28;1957;-74
2024/03/07 07:55:50;;;;;;;;;;;;;;;17.75;43.35;100486.28;10244733;28;956;-71
2024/03/07 08:00:48;;;;;;;;;;;;;;;17.75;43.35;100483.63;10244699;28;836;-71
2024/03/07 08:05:47;;;;;;;;;;;;;;;17.75;43.43;100476.59;10244338;28;870;-72
2024/03/07 08:10:45;;;;;;;;;;;;;;;17.77;43.54;100462.50;10244162;28;1987;-71
2024/03/07 08:15:41;;;;;;;;;;;;;;;17.77;43.34;100460.72;10244081;28;851;-71
2024/03/07 08:20:38;;;;;;;;;;;;;;;17.78;43.46;100454.53;10244264;28;945;-71
2024/03/07 08:25:34;;;;;;;;;;;;;;;17.79;43.67;100463.28;10244222;28;841;-72
2024/03/07 08:30:30;;;;;;;;;;;;;;;17.81;43.55;100451.81;10243416;28;1959;-71
2024/03/07 08:35:26;;;;;;;;;;;;;;;17.82;43.54;100463.25;10243368;28;918;-71
2024/03/07 08:40:22;;;;;;;;;;;;;;;17.83;43.74;100467.59;10243272;28;954;-71
2024/03/07 08:45:19;;;;;;;;;;;;;;;17.84;43.59;100456.13;10251837;28;826;-71
2024/03/07 08:50:16;;;;;;;;;;;;;;;17.86;43.83;100454.31;10250847;28;1898;-71
2024/03/07 08:55:12;;;;;;;;;;;;;;;17.88;43.72;100449.88;10251262;28;898;-71
2024/03/07 09:00:11;;;;;;;;;;;;;;;17.88;43.70;100445.44;10250496;28;755;-71
2024/03/07 09:05:10;;;;;;;;;;;;;;;17.91;43.92;100457.66;10250598;28;878;-76
2024/03/07 09:10:06;;;;;;;;;;;;;;;17.89;43.78;100438.38;10250735;28;1910;-76
2024/03/07 09:15:02;;;;;;;;;;;;;;;17.86;43.74;100449.91;10250006;28;775;-76
2024/03/07 09:19:58;;;;;;;;;;;;;;;17.85;43.44;100444.69;10250449;28;814;-77
2024/03/07 09:24:54;;;;;;;;;;;;;;;17.83;43.18;100439.47;10250246;28;1020;-72
2024/03/07 09:29:50;;;;;;;;;;;;;;;17.84;43.09;100429.75;10248884;28;1964;-71
2024/03/07 09:34:46;;;;;;;;;;;;;;;17.84;42.95;100424.50;10266464;28;1109;-73
2024/03/07 09:39:42;;;;;;;;;;;;;;;17.86;42.69;100426.16;10288234;28;1117;-71
2024/03/07 09:44:39;;;;;;;;;;;;;;;17.87;43.06;100421.78;10288708;28;819;-71
2024/03/07 09:49:38;;;;;;;;;;;;;;;17.89;42.92;100419.94;10289301;28;798;-72
2024/03/07 09:54:34;;;;;;;;;;;;;;;17.91;42.89;100413.69;10287192;28;892;-71
2024/03/07 09:59:29;;;;;;;;;;;;;;;17.93;42.95;100417.16;10288006;28;960;-71
2024/03/07 10:04:25;;;;;;;;;;;;;;;17.94;42.82;100420.63;10287601;28;953;-71
2024/03/07 10:09:21;;;;;;;;;;;;;;;17.95;42.89;100420.59;10250693;28;1568;-71
2024/03/07 10:14:17;;;;;;;;;;;;;;;17.96;43.15;100421.47;10277550;28;1973;-71
2024/03/07 10:19:13;;;;;;;;;;;;;;;18.00;43.02;100416.94;10286973;28;1236;-72
2024/03/07 10:24:10;;;;;;;;;;;;;;;18.00;43.19;100412.53;10287528;28;747;-71
2024/03/07 10:29:07;;;;;;;;;;;;;;;18.01;43.07;100403.69;10287296;28;954;-73
2024/03/07 10:34:03;;;;;;;;;;;;;;;18.02;43.26;100409.84;10286992;28;1959;-73
2024/03/07 10:39:04;;;;;;;;;;;;;;;18.05;43.10;100402.69;10286705;28;771;-72
2024/03/07 10:44:00;;;;;;;;;;;;;;;18.06;43.11;100404.41;10286938;28;842;-73
2024/03/07 10:48:56;;;;;;;;;;;;;;;18.08;43.33;100407.00;10286849;28;838;-73
2024/03/07 10:53:51;;;;;;;;;;;;;;;18.10;43.36;100411.31;10286242;28;1969;-73
2024/03/07 10:58:48;;;;;;;;;;;;;;;18.09;43.43;100399.03;10286031;28;885;-73
2024/03/07 11:03:44;;;;;;;;;;;;;;;18.09;43.50;100395.53;10285062;28;858;-73
2024/03/07 11:08:40;;;;;;;;;;;;;;;18.10;43.55;100387.59;10285768;28;1282;-73
2024/03/07 11:13:37;;;;;;;;;;;;;;;18.11;43.57;100386.66;10285519;28;1985;-73
2024/03/07 11:18:33;;;;;;;;;;;;;;;18.10;43.50;100387.59;10285868;28;885;-72
2024/03/07 11:23:29;;;;;;;;;;;;;;;18.14;43.48;100377.78;10284660;28;865;-73
2024/03/07 11:28:25;;;;;;;;;;;;;;;18.18;43.54;100380.25;10285040;28;965;-77
2024/03/07 11:33:20;;;;;;;;;;;;;;;18.20;43.57;100371.41;10285337;28;2014;-73
2024/03/07 11:38:16;;;;;;;;;;;;;;;18.17;43.60;100359.19;10284751;28;803;-73
2024/03/07 11:43:12;;;;;;;;;;;;;;;18.17;43.50;100356.56;10284661;28;772;-73
2024/03/07 11:48:09;;;;;;;;;;;;;;;18.15;43.68;100356.59;10284835;28;891;-74
2024/03/07 11:53:08;;;;;;;;;;;;;;;18.16;43.57;100352.19;10284358;28;1897;-75
2024/03/07 11:58:04;;;;;;;;;;;;;;;18.15;43.92;100343.41;10284642;28;822;-74
2024/03/07 12:03:00;;;;;;;;;;;;;;;18.16;43.62;100333.72;10283992;28;877;-71
2024/03/07 12:07:57;;;;;;;;;;;;;;;18.15;43.90;100321.44;10283241;28;1221;-72
2024/03/07 12:12:53;;;;;;;;;;;;;;;18.15;43.74;100322.28;10283776;28;1918;-71
2024/03/07 12:17:49;;;;;;;;;;;;;;;18.16;43.86;100313.47;10287813;28;794;-72
2024/03/07 12:22:45;;;;;;;;;;;;;;;18.16;43.72;100300.28;10292819;28;886;-72
2024/03/07 12:27:43;;;;;;;;;;;;;;;18.15;44.12;100298.53;10291702;28;892;-72
2024/03/07 12:32:39;;;;;;;;;;;;;;;18.15;43.85;100298.53;10292447;28;1906;-72
2024/03/07 12:37:35;;;;;;;;;;;;;;;18.14;43.80;100294.19;10292782;28;950;-72
2024/03/07 12:42:30;;;;;;;;;;;;;;;18.13;43.95;100303.03;10291853;28;866;-72
2024/03/07 12:47:26;;;;;;;;;;;;;;;18.13;43.82;100287.22;10292234;28;779;-76
2024/03/07 12:52:22;;;;;;;;;;;;;;;18.13;43.98;100291.59;10292217;28;1971;-78
2024/03/07 12:57:18;;;;;;;;;;;;;;;18.13;44.02;100284.56;10291576;28;988;-77
2024/03/07 13:02:14;;;;;;;;;;;;;;;18.14;43.95;100286.28;10291683;28;792;-76
2024/03/07 13:07:10;;;;;;;;;;;;;;;18.15;43.88;100284.50;10290850;28;1285;-76
2024/03/07 13:12:09;;;;;;;;;;;;;;;18.15;44.00;100285.34;10290798;28;1906;-77
2024/03/07 13:17:06;;;;;;;;;;;;;;;18.14;44.16;100270.47;10290306;28;909;-76
2024/03/07 13:22:01;;;;;;;;;;;;;;;18.16;44.10;100266.00;10290261;28;1117;-70
2024/03/07 13:26:57;;;;;;;;;;;;;;;18.28;43.87;100258.53;10289961;28;880;-69
2024/03/07 13:31:56;;;;;;;;;;;;;;;18.28;43.96;100253.25;10287208;28;1890;-72
2024/03/07 13:36:51;;;;;;;;;;;;;;;18.31;43.74;100254.03;10288765;28;980;-72
2024/03/07 13:41:50;;;;;;;;;;;;;;;18.25;43.69;100248.09;10289627;28;775;-72
2024/03/07 13:46:46;;;;;;;;;;;;;;;18.22;43.76;100233.25;10289237;28;807;-72
2024/03/07 13:51:53;;;;;;;;;;;;;;;18.22;43.88;100227.97;10289166;28;1898;-70
2024/03/07 13:56:49;;;;;;;;;;;;;;;18.21;43.86;100225.38;10288871;28;929;-71
2024/03/07 14:01:45;;;;;;;;;;;;;;;18.18;43.94;100214.03;10289230;28;799;-70
2024/03/07 14:06:41;;;;;;;;;;;;;;;18.17;44.04;100217.56;10288588;28;1345;-70
2024/03/07 14:11:38;;;;;;;;;;;;;;;18.18;44.02;100215.78;10288302;28;1971;-70
2024/03/07 14:16:34;;;;;;;;;;;;;;;18.18;43.97;100215.78;10288108;28;966;-70
2024/03/07 14:21:35;;;;;;;;;;;;;;;18.18;43.85;100213.16;10287969;28;878;-70
2024/03/07 14:26:30;;;;;;;;;;;;;;;18.29;43.81;100204.84;10287803;28;877;-73
2024/03/07 14:31:28;;;;;;;;;;;;;;;18.24;43.89;100196.25;10288168;28;1901;-72
2024/03/07 14:36:24;;;;;;;;;;;;;;;18.20;44.00;100194.63;10287440;28;842;-72
2024/03/07 14:41:22;;;;;;;;;;;;;;;18.18;43.81;100197.31;10286767;28;839;-72
2024/03/07 14:46:18;;;;;;;;;;;;;;;18.24;43.58;100189.19;10286987;28;974;-72
2024/03/07 14:51:14;;;;;;;;;;;;;;;18.20;44.00;100184.06;10286983;28;1890;-71
2024/03/07 14:56:11;;;;;;;;;;;;;;;18.18;43.70;100179.72;10286726;28;1208;-71
2024/03/07 15:01:06;;;;;;;;;;;;;;;18.18;43.73;100174.47;10287120;28;854;-78
2024/03/07 15:06:02;;;;;;;;;;;;;;;18.17;43.95;100166.59;10266072;28;1133;-72
2024/03/07 15:10:58;;;;;;;;;;;;;;;18.18;43.71;100158.63;10245057;28;1914;-70
2024/03/07 15:15:56;;;;;;;;;;;;;;;18.19;43.91;100148.94;10244911;28;917;-72
2024/03/07 15:20:52;;;;;;;;;;;;;;;18.20;43.88;100144.50;10245206;28;890;-72
2024/03/07 15:25:47;;;;;;;;;;;;;;;18.30;43.81;100146.72;10245106;28;777;-73
2024/03/07 15:30:43;;;;;;;;;;;;;;;18.25;43.93;100130.22;10245213;28;1901;-73
2024/03/07 15:35:39;;;;;;;;;;;;;;;18.24;43.76;100133.78;10245387;28;924;-71
2024/03/07 15:40:36;;;;;;;;;;;;;;;18.28;44.00;100130.09;10270262;28;1169;-71
2024/03/07 15:45:31;;;;;;;;;;;;;;;18.32;43.92;100122.94;10284879;28;877;-71
2024/03/07 15:50:28;;;;;;;;;;;;;;;18.28;44.06;100116.88;10283874;28;1948;-71
2024/03/07 15:55:24;;;;;;;;;;;;;;;18.24;43.90;100109.19;10284567;28;826;-71
2024/03/07 16:00:23;;;;;;;;;;;;;;;18.28;43.78;100106.34;10283946;28;807;-72
2024/03/07 16:05:19;;;;;;;;;;;;;;;18.30;43.73;100101.00;10284609;28;861;-72
2024/03/07 16:10:15;;;;;;;;;;;;;;;18.29;43.96;100091.38;10258922;28;1989;-71
2024/03/07 16:15:11;;;;;;;;;;;;;;;18.25;43.90;100097.69;10243678;28;918;-71
2024/03/07 16:20:11;;;;;;;;;;;;;;;18.20;43.90;100097.00;10243012;28;915;-72
2024/03/07 16:25:07;;;;;;;;;;;;;;;18.17;44.14;100085.66;10243923;28;905;-71
2024/03/07 16:30:06;;;;;;;;;;;;;;;18.16;43.95;100085.72;10242880;28;1897;-71
2024/03/07 16:35:08;;;;;;;;;;;;;;;18.15;43.74;100086.63;10243384;28;762;-69
2024/03/07 16:40:05;;;;;;;;;;;;;;;18.12;43.80;100090.25;10243443;28;880;-77
2024/03/07 16:45:04;;;;;;;;;;;;;;;18.09;43.64;100082.47;10243879;28;867;-71
2024/03/07 16:50:00;;;;;;;;;;;;;;;18.09;43.70;100079.81;10243930;28;1894;-72
2024/03/07 16:54:56;;;;;;;;;;;;;;;18.09;43.76;100074.53;10243158;28;752;-71
2024/03/07 16:59:52;;;;;;;;;;;;;;;18.07;43.56;100068.47;10263307;28;1003;-71
2024/03/07 17:04:47;;;;;;;;;;;;;;;18.08;43.50;100077.25;10289140;28;855;-71
2024/03/07 17:09:43;;;;;;;;;;;;;;;18.07;43.40;100078.16;10291032;28;1400;-71
2024/03/07 17:14:43;;;;;;;;;;;;;;;18.06;43.43;100073.81;10290428;28;1975;-72
2024/03/07 17:19:39;;;;;;;;;;;;;;;18.06;43.29;100073.81;10291014;28;853;-71
2024/03/07 17:24:35;;;;;;;;;;;;;;;18.05;43.50;100080.00;10289493;28;759;-71
2024/03/07 17:29:32;;;;;;;;;;;;;;;18.04;43.44;100075.66;10289832;28;974;-70
2024/03/07 17:34:29;;;;;;;;;;;;;;;18.04;43.21;100081.78;10289598;28;1894;-70
2024/03/07 17:39:25;;;;;;;;;;;;;;;18.06;43.46;100084.38;10289989;28;884;-70
2024/03/07 17:44:21;;;;;;;;;;;;;;;18.06;43.53;100095.78;10289899;28;837;-70
2024/03/07 17:49:18;;;;;;;;;;;;;;;18.06;43.54;100092.28;10289149;28;790;-71
2024/03/07 17:54:15;;;;;;;;;;;;;;;18.08;43.41;100093.09;10289435;28;1951;-70
2024/03/07 17:59:11;;;;;;;;;;;;;;;18.07;43.60;100086.06;10288701;28;884;-71
2024/03/07 18:04:09;;;;;;;;;;;;;;;18.08;43.55;100091.31;10289121;28;897;-71
2024/03/07 18:09:12;;;;;;;;;;;;;;;18.09;43.52;100081.59;10288811;28;1133;-71
2024/03/07 18:14:08;;;;;;;;;;;;;;;18.10;43.42;100085.94;10287249;28;1914;-71
2024/03/07 18:19:07;;;;;;;;;;;;;;;18.10;43.47;100081.56;10288014;28;773;-71
2024/03/07 18:24:03;;;;;;;;;;;;;;;18.11;43.77;100085.91;10288183;28;826;-71
2024/03/07 18:28:59;;;;;;;;;;;;;;;18.12;43.67;100087.59;10287630;28;823;-70
2024/03/07 18:33:54;;;;;;;;;;;;;;;18.13;43.86;100088.47;10287996;28;1890;-71
2024/03/07 18:38:50;;;;;;;;;;;;;;;18.14;43.63;100090.19;10287246;28;807;-71
2024/03/07 18:43:46;;;;;;;;;;;;;;;18.13;43.82;100086.72;10287024;28;848;-71
2024/03/07 18:48:42;;;;;;;;;;;;;;;18.15;43.73;100079.56;10287378;28;842;-71
2024/03/07 18:53:38;;;;;;;;;;;;;;;18.16;43.79;100076.03;10286718;28;1950;-71
2024/03/07 18:58:34;;;;;;;;;;;;;;;18.16;43.82;100083.94;10286431;28;922;-71
2024/03/07 19:03:30;;;;;;;;;;;;;;;18.17;43.78;100084.81;10286273;28;813;-71
2024/03/07 19:08:29;;;;;;;;;;;;;;;18.18;43.96;100079.47;10286293;28;1137;-71
2024/03/07 19:13:25;;;;;;;;;;;;;;;18.18;43.91;100084.75;10285771;28;1910;-72
2024/03/07 19:18:22;;;;;;;;;;;;;;;18.19;43.80;100080.31;10285742;28;941;-71
2024/03/07 19:23:20;;;;;;;;;;;;;;;18.21;43.83;100083.78;10285572;28;783;-71
2024/03/07 19:28:16;;;;;;;;;;;;;;;18.21;43.79;100077.59;10285457;28;806;-71
2024/03/07 19:33:14;;;;;;;;;;;;;;;18.22;43.80;100087.25;10285180;28;1894;-72
2024/03/07 19:38:10;;;;;;;;;;;;;;;18.23;43.97;100091.59;10285653;28;956;-71
2024/03/07 19:43:06;;;;;;;;;;;;;;;18.23;43.83;100091.59;10284897;28;767;-71
2024/03/07 19:48:03;;;;;;;;;;;;;;;18.25;44.02;100089.78;10284699;28;854;-72
2024/03/07 19:53:02;;;;;;;;;;;;;;;18.22;44.00;100085.47;10284507;28;1898;-72
2024/03/07 19:57:58;;;;;;;;;;;;;;;18.23;43.63;100086.34;10284534;28;826;-72
2024/03/07 20:02:55;;;;;;;;;;;;;;;18.23;43.70;100086.34;10284383;28;761;-75
2024/03/07 20:07:51;;;;;;;;;;;;;;;18.23;43.62;100086.34;10284630;28;1120;-71
2024/03/07 20:12:47;;;;;;;;;;;;;;;18.23;43.78;100086.34;10283445;28;1969;-71
2024/03/07 20:17:43;;;;;;;;;;;;;;;18.24;43.62;100086.28;10284216;28;898;-71
2024/03/07 20:22:39;;;;;;;;;;;;;;;18.24;43.66;100090.72;10284577;28;834;-71
2024/03/07 20:27:35;;;;;;;;;;;;;;;18.24;43.83;100081.00;10283953;28;918;-71
2024/03/07 20:32:32;;;;;;;;;;;;;;;18.25;43.87;100074.78;10283172;28;1894;-71
2024/03/07 20:37:28;;;;;;;;;;;;;;;18.25;43.63;100071.31;10286189;28;826;-71
2024/03/07 20:42:24;;;;;;;;;;;;;;;18.24;43.74;100072.25;10292167;28;872;-71
2024/03/07 20:47:22;;;;;;;;;;;;;;;18.23;43.79;100058.16;10291525;28;1044;-70
2024/03/07 20:52:18;;;;;;;;;;;;;;;18.23;43.92;100065.22;10291735;28;1890;-71
2024/03/07 20:57:14;;;;;;;;;;;;;;;18.23;43.56;100062.59;10291702;28;852;-71
2024/03/07 21:02:11;;;;;;;;;;;;;;;18.22;43.58;100061.72;10273055;28;1343;-71
2024/03/07 21:07:08;;;;;;;;;;;;;;;18.22;43.79;100060.88;10290350;28;1379;-71
2024/03/07 21:12:04;;;;;;;;;;;;;;;18.22;43.56;100052.97;10291013;28;1906;-71
2024/03/07 21:17:00;;;;;;;;;;;;;;;18.21;43.65;100048.59;10290425;28;875;-71
2024/03/07 21:21:56;;;;;;;;;;;;;;;18.19;43.58;100038.13;10290465;28;794;-71
2024/03/07 21:26:53;;;;;;;;;;;;;;;18.18;43.64;100041.66;10290113;28;894;-71
2024/03/07 21:31:49;;;;;;;;;;;;;;;18.18;43.67;100037.25;10289848;28;1957;-71
2024/03/07 21:36:45;;;;;;;;;;;;;;;18.17;43.49;100040.81;10290371;28;814;-71
2024/03/07 21:41:41;;;;;;;;;;;;;;;18.17;43.66;100032.03;10289401;28;846;-71
2024/03/07 21:46:36;;;;;;;;;;;;;;;18.16;43.69;100036.47;10289883;28;850;-71
2024/03/07 21:51:32;;;;;;;;;;;;;;;18.14;43.61;100030.38;10288997;28;1967;-71
2024/03/07 21:56:28;;;;;;;;;;;;;;;18.13;43.56;100019.88;10288906;28;814;-71
2024/03/07 22:01:24;;;;;;;;;;;;;;;18.11;43.53;100024.38;10288825;28;807;-71
2024/03/07 22:06:20;;;;;;;;;;;;;;;18.10;43.79;100014.72;10288482;28;1308;-71
2024/03/07 22:11:16;;;;;;;;;;;;;;;18.08;43.65;100014.81;10288936;28;1914;-71
2024/03/07 22:16:12;;;;;;;;;;;;;;;18.07;43.60;100018.34;10288702;28;761;-71
2024/03/07 22:21:08;;;;;;;;;;;;;;;18.05;43.60;100017.56;10288736;28;893;-71
2024/03/07 22:26:05;;;;;;;;;;;;;;;18.03;43.82;100013.28;10287794;28;798;-71
2024/03/07 22:31:01;;;;;;;;;;;;;;;18.01;43.56;100015.97;10288138;28;1965;-71
2024/03/07 22:35:57;;;;;;;;;;;;;;;18.00;43.67;100016.00;10288002;28;783;-71
2024/03/07 22:40:53;;;;;;;;;;;;;;;17.99;43.76;100014.31;10287224;28;929;-71
2024/03/07 22:45:49;;;;;;;;;;;;;;;17.96;43.63;100002.94;10287075;28;861;-71
2024/03/07 22:50:45;;;;;;;;;;;;;;;17.94;43.81;100002.16;10286750;28;1898;-70
2024/03/07 22:55:41;;;;;;;;;;;;;;;17.94;43.84;99998.66;10286013;28;892;-71
2024/03/07 23:00:43;;;;;;;;;;;;;;;17.93;43.71;99986.41;10285891;28;823;-71
2024/03/07 23:05:40;;;;;;;;;;;;;;;17.91;43.76;99982.97;10286901;28;921;-71
2024/03/07 23:10:36;;;;;;;;;;;;;;;17.90;43.82;99981.25;10286427;28;1991;-71
2024/03/07 23:15:32;;;;;;;;;;;;;;;17.90;43.61;99978.63;10286067;28;823;-71
2024/03/07 23:20:28;;;;;;;;;;;;;;;17.87;43.86;99971.69;10285984;28;786;-71
2024/03/07 23:25:24;;;;;;;;;;;;;;;17.86;43.67;99972.59;10286016;28;823;-71
2024/03/07 23:30:21;;;;;;;;;;;;;;;17.85;44.04;99978.78;10286412;28;1955;-71
2024/03/07 23:35:17;;;;;;;;;;;;;;;17.84;43.80;99976.22;10285401;28;997;-71
2024/03/07 23:40:13;;;;;;;;;;;;;;;17.83;43.67;99972.72;10285865;28;856;-71
2024/03/07 23:45:10;;;;;;;;;;;;;;;17.82;43.66;99972.78;10285346;28;927;-71
2024/03/07 23:50:10;;;;;;;;;;;;;;;17.81;43.72;99963.16;10285936;28;846;-71
2024/03/07 23:55:06;;;;;;;;;;;;;;;17.80;43.88;99961.44;10285022;28;775;-71
